createdAt,value
2019-06-01T01:55:25.363Z,1017.83
2019-06-01T01:56:25.328Z,1017.84
2019-06-01T01:58:18.500Z,1017.81
2019-06-01T01:59:18.039Z,1017.81
2019-06-01T02:01:22.197Z,1017.83
2019-06-01T02:02:10.748Z,1017.81
2019-06-01T02:04:03.546Z,1017.82
2019-06-01T02:05:03.466Z,1017.76
2019-06-01T02:06:56.226Z,1017.72
2019-06-01T02:07:56.987Z,1017.78
2019-06-01T02:09:49.139Z,1017.80
2019-06-01T02:10:48.956Z,1017.75
2019-06-01T02:12:41.899Z,1017.74
2019-06-01T02:13:41.671Z,1017.73
2019-06-01T02:15:34.484Z,1017.71
2019-06-01T02:16:34.624Z,1017.68
2019-06-01T02:18:27.449Z,1017.73
2019-06-01T02:19:27.251Z,1017.74
2019-06-01T02:21:20.146Z,1017.68
2019-06-01T02:22:20.056Z,1017.70
2019-06-01T02:24:12.960Z,1017.69
2019-06-01T02:25:12.851Z,1017.68
2019-06-01T02:27:05.648Z,1017.67
2019-06-01T02:28:05.727Z,1017.64
2019-06-01T02:29:59.383Z,1017.68
2019-06-01T02:30:59.744Z,1017.65
2019-06-01T02:32:51.160Z,1017.64
2019-06-01T02:33:50.973Z,1017.62
2019-06-01T02:35:44.074Z,1017.61
2019-06-01T02:36:43.697Z,1017.61
2019-06-01T02:38:36.561Z,1017.61
2019-06-01T02:39:36.485Z,1017.58
2019-06-01T02:41:29.300Z,1017.57
2019-06-01T02:42:29.234Z,1017.57
2019-06-01T02:44:22.040Z,1017.48
2019-06-01T02:45:21.957Z,1017.48
2019-06-01T02:47:14.780Z,1017.46
2019-06-01T02:48:14.698Z,1017.44
2019-06-01T02:50:07.471Z,1017.48
2019-06-01T02:51:07.426Z,1017.44
2019-06-01T02:53:01.441Z,1017.42
2019-06-01T02:54:01.625Z,1017.46
2019-06-01T02:55:53.256Z,1017.50
2019-06-01T02:56:53.069Z,1017.47
2019-06-01T02:58:46.011Z,1017.49
2019-06-01T02:59:45.875Z,1017.48
2019-06-01T03:01:38.655Z,1017.50
2019-06-01T03:02:38.576Z,1017.48
2019-06-01T03:04:31.375Z,1017.50
2019-06-01T03:05:31.285Z,1017.46
2019-06-01T03:07:24.092Z,1017.51
2019-06-01T03:08:24.034Z,1017.51
2019-06-01T03:10:16.848Z,1017.55
2019-06-01T03:11:16.749Z,1017.55
2019-06-01T03:13:09.820Z,1017.53
2019-06-01T03:14:09.475Z,1017.56
2019-06-01T03:16:03.458Z,1017.55
2019-06-01T03:17:03.684Z,1017.55
2019-06-01T03:18:55.056Z,1017.54
2019-06-01T03:19:55.029Z,1017.52
2019-06-01T03:21:47.802Z,1017.53
2019-06-01T03:22:47.733Z,1017.54
2019-06-01T03:24:40.570Z,1017.48
2019-06-01T03:25:40.461Z,1017.52
2019-06-01T03:27:33.296Z,1017.49
2019-06-01T03:28:33.204Z,1017.51
2019-06-01T03:30:25.964Z,1017.49
2019-06-01T03:31:25.891Z,1017.49
2019-06-01T03:33:18.759Z,1017.48
2019-06-01T03:34:18.644Z,1017.48
2019-06-01T03:36:11.453Z,1017.44
2019-06-01T03:39:04.082Z,1017.41
2019-06-01T03:40:06.838Z,1017.39
2019-06-01T03:41:56.857Z,1017.40
2019-06-01T03:42:56.732Z,1017.42
2019-06-01T03:44:49.652Z,1017.43
2019-06-01T03:45:49.533Z,1017.48
2019-06-01T03:47:42.292Z,1017.48
2019-06-01T03:48:42.276Z,1017.48
2019-06-01T03:50:35.028Z,1017.49
2019-06-01T03:51:34.938Z,1017.50
2019-06-01T03:53:27.837Z,1017.52
2019-06-01T03:54:27.830Z,1017.52
2019-06-01T03:56:20.577Z,1017.57
2019-06-01T03:57:20.489Z,1017.60
2019-06-01T03:59:13.403Z,1017.57
2019-06-01T04:00:13.215Z,1017.58
2019-06-01T04:02:07.004Z,1017.60
2019-06-01T04:03:07.054Z,1017.61
2019-06-01T04:04:58.778Z,1017.63
2019-06-01T04:05:58.655Z,1017.60
2019-06-01T04:07:51.517Z,1017.59
2019-06-01T04:08:51.474Z,1017.59
2019-06-01T04:10:44.583Z,1017.62
2019-06-01T04:11:44.405Z,1017.64
2019-06-01T04:13:37.383Z,1017.63
2019-06-01T04:14:37.151Z,1017.65
2019-06-01T04:16:29.937Z,1017.66
2019-06-01T04:17:32.792Z,1017.68
2019-06-01T04:19:22.668Z,1017.67
2019-06-01T04:20:22.698Z,1017.70
2019-06-01T04:22:15.378Z,1017.68
2019-06-01T04:23:15.326Z,1017.70
2019-06-01T04:25:08.365Z,1017.69
2019-06-01T04:26:08.167Z,1017.71
2019-06-01T04:28:01.977Z,1017.75
2019-06-01T04:29:02.179Z,1017.73
2019-06-01T04:30:53.568Z,1017.75
2019-06-01T04:31:53.496Z,1017.73
2019-06-01T04:33:46.250Z,1017.73
2019-06-01T04:34:46.244Z,1017.74
2019-06-01T04:36:38.991Z,1017.73
2019-06-01T04:37:39.003Z,1017.75
2019-06-01T04:39:31.712Z,1017.72
2019-06-01T04:40:31.633Z,1017.74
2019-06-01T04:42:24.430Z,1017.71
2019-06-01T04:43:24.367Z,1017.73
2019-06-01T04:45:17.171Z,1017.71
2019-06-01T04:46:17.115Z,1017.72
2019-06-01T04:48:10.614Z,1017.80
2019-06-01T04:49:10.690Z,1017.78
2019-06-01T04:51:02.597Z,1017.76
2019-06-01T04:52:02.550Z,1017.83
2019-06-01T04:53:55.431Z,1017.84
2019-06-01T04:54:55.490Z,1017.82
2019-06-01T04:56:48.080Z,1017.87
2019-06-01T04:57:48.006Z,1017.84
2019-06-01T04:59:40.898Z,1017.88
2019-06-01T05:00:40.842Z,1017.88
2019-06-01T05:02:33.623Z,1017.87
2019-06-01T05:03:33.537Z,1017.90
2019-06-01T05:05:26.363Z,1017.96
2019-06-01T05:06:26.283Z,1018.02
2019-06-01T05:08:19.107Z,1017.98
2019-06-01T05:09:19.029Z,1018.00
2019-06-01T05:11:11.960Z,1018.01
2019-06-01T05:12:11.783Z,1018.03
2019-06-01T05:14:05.426Z,1018.03
2019-06-01T05:15:05.490Z,1018.05
2019-06-01T05:16:57.406Z,1018.02
2019-06-01T05:17:57.278Z,1018.01
2019-06-01T05:19:50.299Z,1017.97
2019-06-01T05:20:50.125Z,1018.02
2019-06-01T05:22:43.120Z,1018.02
2019-06-01T05:23:42.814Z,1018.01
2019-06-01T05:25:35.634Z,1018.02
2019-06-01T05:26:35.517Z,1018.00
2019-06-01T05:28:28.315Z,1018.00
2019-06-01T05:29:28.255Z,1017.99
2019-06-01T05:31:25.077Z,1018.01
2019-06-01T05:32:20.980Z,1018.03
2019-06-01T05:34:13.894Z,1018.06
2019-06-01T05:35:13.797Z,1018.05
2019-06-01T05:37:06.533Z,1018.04
2019-06-01T05:38:06.445Z,1018.03
2019-06-01T05:39:59.413Z,1018.05
2019-06-01T05:40:59.185Z,1018.02
2019-06-01T05:42:52.196Z,1018.04
2019-06-01T05:43:51.904Z,1018.02
2019-06-01T05:45:44.813Z,1018.03
2019-06-01T05:46:44.782Z,1018.04
2019-06-01T05:48:37.538Z,1018.04
2019-06-01T05:49:37.360Z,1018.04
2019-06-01T05:51:30.172Z,1018.01
2019-06-01T05:52:30.100Z,1018.03
2019-06-01T05:54:23.020Z,1018.06
2019-06-01T05:55:23.143Z,1018.06
2019-06-01T05:57:16.727Z,1018.02
2019-06-01T05:58:15.559Z,1018.06
2019-06-01T06:00:08.357Z,1018.06
2019-06-01T06:01:08.307Z,1018.03
2019-06-01T06:03:01.183Z,1018.05
2019-06-01T06:04:01.011Z,1018.03
2019-06-01T06:05:53.821Z,1018.02
2019-06-01T06:06:53.749Z,1018.01
2019-06-01T06:08:46.518Z,1018.02
2019-06-01T06:09:46.463Z,1018.00
2019-06-01T06:11:39.280Z,1018.03
2019-06-01T06:12:39.210Z,1017.97
2019-06-01T06:14:31.994Z,1017.99
2019-06-01T06:15:32.046Z,1017.97
2019-06-01T06:17:24.848Z,1018.01
2019-06-01T06:18:24.663Z,1018.04
2019-06-01T06:20:18.033Z,1018.05
2019-06-01T06:21:18.512Z,1018.05
2019-06-01T06:23:10.208Z,1018.04
2019-06-01T06:24:10.146Z,1018.07
2019-06-01T06:26:02.924Z,1018.03
2019-06-01T06:27:02.883Z,1018.07
2019-06-01T06:28:55.636Z,1018.03
2019-06-01T06:29:55.582Z,1018.09
2019-06-01T06:31:48.378Z,1018.07
2019-06-01T06:32:48.306Z,1018.12
2019-06-01T06:34:41.083Z,1018.13
2019-06-01T06:35:41.035Z,1018.06
2019-06-01T06:37:33.824Z,1018.08
2019-06-01T06:38:33.774Z,1018.15
2019-06-01T06:40:26.528Z,1018.13
2019-06-01T06:41:26.529Z,1018.15
2019-06-01T06:43:24.746Z,1018.17
2019-06-01T06:44:19.201Z,1018.16
2019-06-01T06:46:12.025Z,1018.16
2019-06-01T06:47:11.920Z,1018.10
2019-06-01T06:49:04.720Z,1018.18
2019-06-01T06:50:04.635Z,1018.17
2019-06-01T06:51:57.455Z,1018.22
2019-06-01T06:52:57.597Z,1018.20
2019-06-01T06:54:50.175Z,1018.24
2019-06-01T06:55:50.108Z,1018.23
2019-06-01T06:57:42.906Z,1018.17
2019-06-01T06:58:42.848Z,1018.23
2019-06-01T07:00:35.619Z,1018.21
2019-06-01T07:01:35.573Z,1018.25
2019-06-01T07:03:28.426Z,1018.25
2019-06-01T07:04:28.369Z,1018.24
2019-06-01T07:06:21.483Z,1018.24
2019-06-01T07:07:21.711Z,1018.29
2019-06-01T07:09:13.978Z,1018.32
2019-06-01T07:10:13.878Z,1018.27
2019-06-01T07:12:06.685Z,1018.22
2019-06-01T07:13:06.617Z,1018.27
2019-06-01T07:14:59.418Z,1018.27
2019-06-01T07:15:59.352Z,1018.25
2019-06-01T07:17:52.195Z,1018.25
2019-06-01T07:18:52.101Z,1018.19
2019-06-01T07:20:44.927Z,1018.24
2019-06-01T07:21:44.910Z,1018.26
2019-06-01T07:23:38.749Z,1018.24
2019-06-01T07:24:38.046Z,1018.28
2019-06-01T07:26:30.866Z,1018.27
2019-06-01T07:27:30.798Z,1018.29
2019-06-01T07:29:24.191Z,1018.24
2019-06-01T07:30:24.233Z,1018.22
2019-06-01T07:32:16.347Z,1018.30
2019-06-01T07:33:16.289Z,1018.27
2019-06-01T07:35:09.271Z,1018.23
2019-06-01T07:36:09.188Z,1018.24
2019-06-01T07:38:02.285Z,1018.22
2019-06-01T07:39:02.131Z,1018.24
2019-06-01T07:40:55.274Z,1018.26
2019-06-01T07:41:54.935Z,1018.31
2019-06-01T07:43:49.583Z,1018.23
2019-06-01T07:44:49.451Z,1018.26
2019-06-01T07:46:42.502Z,1018.29
2019-06-01T07:47:42.310Z,1018.31
2019-06-01T07:49:35.153Z,1018.30
2019-06-01T07:50:35.057Z,1018.37
2019-06-01T07:52:28.294Z,1018.32
2019-06-01T07:53:27.816Z,1018.35
2019-06-01T07:55:21.386Z,1018.35
2019-06-01T07:56:20.578Z,1018.34
2019-06-01T07:58:13.447Z,1018.41
2019-06-01T07:59:13.365Z,1018.45
2019-06-01T08:01:06.158Z,1018.44
2019-06-01T08:02:06.125Z,1018.43
2019-06-01T08:03:58.921Z,1018.46
2019-06-01T08:04:58.881Z,1018.46
2019-06-01T08:06:51.715Z,1018.46
2019-06-01T08:07:51.622Z,1018.42
2019-06-01T08:09:44.430Z,1018.42
2019-06-01T08:10:44.701Z,1018.37
2019-06-01T08:12:38.111Z,1018.44
2019-06-01T08:13:37.995Z,1018.42
2019-06-01T08:15:31.871Z,1018.43
2019-06-01T08:16:31.950Z,1018.39
2019-06-01T08:18:23.941Z,1018.44
2019-06-01T08:19:23.872Z,1018.44
2019-06-01T08:21:16.305Z,1018.46
2019-06-01T08:22:16.265Z,1018.43
2019-06-01T08:24:09.111Z,1018.38
2019-06-01T08:25:09.019Z,1018.38
2019-06-01T08:27:01.835Z,1018.41
2019-06-01T08:28:01.785Z,1018.38
2019-06-01T08:29:54.602Z,1018.36
2019-06-01T08:30:54.587Z,1018.33
2019-06-01T08:32:48.954Z,1018.40
2019-06-01T08:33:47.578Z,1018.32
2019-06-01T08:35:40.633Z,1018.21
2019-06-01T08:36:40.351Z,1018.27
2019-06-01T08:38:33.789Z,1018.18
2019-06-01T08:39:34.217Z,1018.25
2019-06-01T08:41:25.940Z,1018.24
2019-06-01T08:42:25.852Z,1018.19
2019-06-01T08:44:18.666Z,1018.25
2019-06-01T08:45:18.596Z,1018.21
2019-06-01T08:47:11.400Z,1018.22
2019-06-01T08:48:11.358Z,1018.20
2019-06-01T08:50:04.487Z,1018.18
2019-06-01T08:51:04.137Z,1018.15
2019-06-01T08:52:56.916Z,1018.09
2019-06-01T08:53:56.862Z,1018.10
2019-06-01T08:55:49.767Z,1018.08
2019-06-01T08:56:49.666Z,1018.08
2019-06-01T08:58:42.539Z,1018.09
2019-06-01T08:59:42.414Z,1018.13
2019-06-01T09:01:35.324Z,1018.10
2019-06-01T09:02:35.287Z,1018.03
2019-06-01T09:04:28.832Z,1018.04
2019-06-01T09:05:29.870Z,1018.02
2019-06-01T09:07:20.825Z,1018.00
2019-06-01T09:08:23.695Z,1017.98
2019-06-01T09:10:13.614Z,1017.97
2019-06-01T09:11:13.519Z,1017.96
2019-06-01T09:13:06.353Z,1017.97
2019-06-01T09:14:06.272Z,1017.91
2019-06-01T09:15:59.226Z,1017.91
2019-06-01T09:16:59.163Z,1017.90
2019-06-01T09:18:51.962Z,1017.94
2019-06-01T09:19:51.907Z,1017.90
2019-06-01T09:21:44.745Z,1017.98
2019-06-01T09:22:47.910Z,1017.91
2019-06-01T09:24:37.536Z,1017.92
2019-06-01T09:25:37.473Z,1017.91
2019-06-01T09:27:30.403Z,1017.93
2019-06-01T09:28:30.221Z,1017.88
2019-06-01T09:30:23.224Z,1017.92
2019-06-01T09:31:23.107Z,1017.92
2019-06-01T09:33:16.010Z,1017.95
2019-06-01T09:34:15.923Z,1017.87
2019-06-01T09:36:08.842Z,1017.93
2019-06-01T09:37:08.789Z,1017.94
2019-06-01T09:39:01.651Z,1017.88
2019-06-01T09:40:01.614Z,1017.93
2019-06-01T09:41:54.465Z,1017.89
2019-06-01T09:42:54.334Z,1017.92
2019-06-01T09:44:47.161Z,1017.86
2019-06-01T09:45:47.084Z,1017.87
2019-06-01T09:47:39.876Z,1017.83
2019-06-01T09:48:40.016Z,1017.85
2019-06-01T09:50:33.449Z,1017.82
2019-06-01T09:51:33.441Z,1017.82
2019-06-01T09:53:25.749Z,1017.83
2019-06-01T09:54:25.690Z,1017.81
2019-06-01T09:56:18.539Z,1017.83
2019-06-01T09:57:18.458Z,1017.85
2019-06-01T09:59:11.418Z,1017.79
2019-06-01T10:00:11.370Z,1017.84
2019-06-01T10:02:04.250Z,1017.81
2019-06-01T10:03:04.198Z,1017.78
2019-06-01T10:04:56.939Z,1017.76
2019-06-01T10:06:01.964Z,1017.70
2019-06-01T10:07:49.689Z,1017.78
2019-06-01T10:08:49.629Z,1017.76
2019-06-01T10:10:42.480Z,1017.74
2019-06-01T10:11:42.490Z,1017.75
2019-06-01T10:13:36.394Z,1017.74
2019-06-01T10:14:36.201Z,1017.65
2019-06-01T10:16:27.942Z,1017.75
2019-06-01T10:17:27.866Z,1017.69
2019-06-01T10:19:20.699Z,1017.65
2019-06-01T10:20:20.664Z,1017.67
2019-06-01T10:22:13.444Z,1017.67
2019-06-01T10:23:13.379Z,1017.63
2019-06-01T10:25:06.191Z,1017.58
2019-06-01T10:26:06.123Z,1017.57
2019-06-01T10:27:58.928Z,1017.48
2019-06-01T10:28:58.895Z,1017.54
2019-06-01T10:30:51.681Z,1017.56
2019-06-01T10:31:51.628Z,1017.48
2019-06-01T10:33:44.433Z,1017.47
2019-06-01T10:34:44.374Z,1017.43
2019-06-01T10:36:38.036Z,1017.48
2019-06-01T10:37:37.685Z,1017.45
2019-06-01T10:39:31.149Z,1017.43
2019-06-01T10:40:31.225Z,1017.37
2019-06-01T10:42:22.841Z,1017.40
2019-06-01T10:43:22.714Z,1017.44
2019-06-01T10:45:15.538Z,1017.43
2019-06-01T10:46:15.579Z,1017.48
2019-06-01T10:48:08.264Z,1017.48
2019-06-01T10:49:08.298Z,1017.42
2019-06-01T10:51:01.037Z,1017.37
2019-06-01T10:52:00.963Z,1017.39
2019-06-01T10:53:53.902Z,1017.28
2019-06-01T10:54:53.827Z,1017.29
2019-06-01T10:56:46.616Z,1017.26
2019-06-01T10:57:46.510Z,1017.27
2019-06-01T10:59:40.467Z,1017.17
2019-06-01T11:00:47.786Z,1017.16
2019-06-01T11:02:32.557Z,1017.21
2019-06-01T11:03:32.542Z,1017.19
2019-06-01T11:05:25.143Z,1017.08
2019-06-01T11:06:36.642Z,1017.08
2019-06-01T11:08:17.921Z,1017.11
2019-06-01T11:09:17.804Z,1017.11
2019-06-01T11:11:10.601Z,1017.19
2019-06-01T11:12:10.529Z,1017.13
2019-06-01T11:14:03.331Z,1017.03
2019-06-01T11:15:03.282Z,1017.04
2019-06-01T11:16:56.975Z,1017.07
2019-06-01T11:17:56.443Z,1017.08
2019-06-01T11:19:49.215Z,1017.04
2019-06-01T11:20:49.096Z,1017.04
2019-06-01T11:22:41.887Z,1017.08
2019-06-01T11:23:45.049Z,1017.01
2019-06-01T11:25:35.633Z,1017.02
2019-06-01T11:26:35.568Z,1017.00
2019-06-01T11:28:27.425Z,1016.93
2019-06-01T11:29:27.348Z,1016.91
2019-06-01T11:31:20.261Z,1016.93
2019-06-01T11:32:20.188Z,1016.91
2019-06-01T11:34:13.866Z,1016.86
2019-06-01T11:35:13.825Z,1016.95
2019-06-01T11:37:06.796Z,1016.86
2019-06-01T11:38:06.517Z,1016.84
2019-06-01T11:39:59.331Z,1016.88
2019-06-01T11:40:59.257Z,1016.83
2019-06-01T11:42:52.047Z,1016.81
2019-06-01T11:43:51.980Z,1016.77
2019-06-01T11:45:45.202Z,1016.77
2019-06-01T11:46:45.116Z,1016.71
2019-06-01T11:48:39.083Z,1016.66
2019-06-01T11:49:38.628Z,1016.66
2019-06-01T11:51:30.285Z,1016.71
2019-06-01T11:52:30.202Z,1016.65
2019-06-01T11:54:23.029Z,1016.72
2019-06-01T11:55:22.936Z,1016.71
2019-06-01T11:57:15.727Z,1016.64
2019-06-01T11:58:15.714Z,1016.65
2019-06-01T12:00:08.494Z,1016.63
2019-06-01T12:01:08.411Z,1016.63
2019-06-01T12:03:02.257Z,1016.53
2019-06-01T12:04:02.183Z,1016.65
2019-06-01T12:05:55.116Z,1016.58
2019-06-01T12:06:55.164Z,1016.59
2019-06-01T12:08:47.891Z,1016.50
2019-06-01T12:09:47.736Z,1016.50
2019-06-01T12:11:40.534Z,1016.45
2019-06-01T12:12:40.503Z,1016.45
2019-06-01T12:14:33.404Z,1016.42
2019-06-01T12:15:33.266Z,1016.42
2019-06-01T12:17:26.109Z,1016.37
2019-06-01T12:18:26.018Z,1016.40
2019-06-01T12:20:18.826Z,1016.36
2019-06-01T12:21:18.773Z,1016.35
2019-06-01T12:23:11.587Z,1016.45
2019-06-01T12:24:11.506Z,1016.38
2019-06-01T12:26:04.300Z,1016.36
2019-06-01T12:27:04.222Z,1016.36
2019-06-01T12:28:57.012Z,1016.34
2019-06-01T12:29:56.956Z,1016.30
2019-06-01T12:31:49.784Z,1016.29
2019-06-01T12:32:49.698Z,1016.25
2019-06-01T12:34:42.470Z,1016.17
2019-06-01T12:35:42.444Z,1016.23
2019-06-01T12:37:54.909Z,1016.14
2019-06-01T12:38:35.133Z,1016.11
2019-06-01T12:40:27.914Z,1016.14
2019-06-01T12:41:27.884Z,1016.08
2019-06-01T12:43:20.659Z,1016.16
2019-06-01T12:44:20.594Z,1016.10
2019-06-01T12:46:13.459Z,1015.98
2019-06-01T12:47:13.361Z,1016.13
2019-06-01T12:49:06.179Z,1016.11
2019-06-01T12:50:06.197Z,1016.07
2019-06-01T12:51:58.940Z,1016.07
2019-06-01T12:52:58.874Z,1016.02
2019-06-01T12:54:51.635Z,1015.95
2019-06-01T12:55:51.576Z,1015.93
2019-06-01T12:57:44.862Z,1015.96
2019-06-01T12:58:44.320Z,1015.89
2019-06-01T13:00:37.370Z,1015.84
2019-06-01T13:01:37.080Z,1015.86
2019-06-01T13:03:29.835Z,1015.87
2019-06-01T13:04:29.761Z,1015.84
2019-06-01T13:06:22.604Z,1015.90
2019-06-01T13:07:22.520Z,1015.84
2019-06-01T13:09:15.308Z,1015.82
2019-06-01T13:10:15.282Z,1015.79
2019-06-01T13:12:08.168Z,1015.71
2019-06-01T13:13:08.089Z,1015.78
2019-06-01T13:15:01.803Z,1015.82
2019-06-01T13:16:01.748Z,1015.79
2019-06-01T13:17:54.540Z,1015.77
2019-06-01T13:18:54.467Z,1015.82
2019-06-01T13:20:47.740Z,1015.75
2019-06-01T13:21:47.521Z,1015.71
2019-06-01T13:23:41.308Z,1015.63
2019-06-01T13:24:41.452Z,1015.67
2019-06-01T13:26:32.894Z,1015.59
2019-06-01T13:27:32.766Z,1015.64
2019-06-01T13:29:25.589Z,1015.60
2019-06-01T13:30:25.489Z,1015.58
2019-06-01T13:32:18.300Z,1015.56
2019-06-01T13:33:18.225Z,1015.55
2019-06-01T13:35:11.015Z,1015.53
2019-06-01T13:36:10.950Z,1015.58
2019-06-01T13:38:11.897Z,1015.59
2019-06-01T13:39:03.695Z,1015.58
2019-06-01T13:40:56.479Z,1015.55
2019-06-01T13:41:56.410Z,1015.52
2019-06-01T13:43:49.551Z,1015.43
2019-06-01T13:44:49.497Z,1015.49
2019-06-01T13:46:43.336Z,1015.43
2019-06-01T13:47:43.291Z,1015.45
2019-06-01T13:49:34.760Z,1015.41
2019-06-01T13:50:34.691Z,1015.40
2019-06-01T13:52:27.514Z,1015.35
2019-06-01T13:53:27.440Z,1015.44
2019-06-01T13:55:20.221Z,1015.40
2019-06-01T13:56:20.161Z,1015.40
2019-06-01T13:58:12.964Z,1015.37
2019-06-01T13:59:12.898Z,1015.36
2019-06-01T14:01:05.709Z,1015.32
2019-06-01T14:02:05.677Z,1015.36
2019-06-01T14:03:58.473Z,1015.31
2019-06-01T14:04:58.372Z,1015.22
2019-06-01T14:06:51.294Z,1015.31
2019-06-01T14:07:51.507Z,1015.31
2019-06-01T14:09:45.096Z,1015.29
2019-06-01T14:10:45.064Z,1015.33
2019-06-01T14:12:36.698Z,1015.27
2019-06-01T14:13:36.553Z,1015.28
2019-06-01T14:15:29.372Z,1015.33
2019-06-01T14:16:29.311Z,1015.38
2019-06-01T14:18:22.089Z,1015.25
2019-06-01T14:19:22.023Z,1015.30
2019-06-01T14:21:16.516Z,1015.26
2019-06-01T14:22:14.799Z,1015.23
2019-06-01T14:24:07.622Z,1015.22
2019-06-01T14:25:13.590Z,1015.19
2019-06-01T14:27:00.334Z,1015.22
2019-06-01T14:28:00.273Z,1015.21
2019-06-01T14:29:54.355Z,1015.20
2019-06-01T14:30:53.000Z,1015.20
2019-06-01T14:32:46.197Z,1015.20
2019-06-01T14:33:46.504Z,1015.21
2019-06-01T14:35:38.543Z,1015.19
2019-06-01T14:36:38.487Z,1015.20
2019-06-01T14:38:46.075Z,1015.15
2019-06-01T14:39:31.246Z,1015.24
2019-06-01T14:41:24.032Z,1015.18
2019-06-01T14:42:23.920Z,1015.12
2019-06-01T14:44:16.752Z,1015.17
2019-06-01T14:45:16.667Z,1015.14
2019-06-01T14:47:09.891Z,1015.16
2019-06-01T14:48:09.852Z,1015.11
2019-06-01T14:50:02.605Z,1015.09
2019-06-01T14:51:02.556Z,1015.09
2019-06-01T14:52:55.750Z,1015.05
2019-06-01T14:53:55.805Z,1015.02
2019-06-01T14:55:49.675Z,1015.06
2019-06-01T14:56:49.625Z,1015.02
2019-06-01T14:58:42.276Z,1015.03
2019-06-01T14:59:41.323Z,1015.00
2019-06-01T15:01:34.332Z,1015.01
2019-06-01T15:02:34.318Z,1015.01
2019-06-01T15:04:27.642Z,1014.95
2019-06-01T15:05:27.420Z,1015.02
2019-06-01T15:07:20.404Z,1014.98
2019-06-01T15:08:20.209Z,1014.95
2019-06-01T15:10:13.067Z,1014.93
2019-06-01T15:11:12.998Z,1014.93
2019-06-01T15:13:05.837Z,1014.91
2019-06-01T15:14:05.756Z,1014.90
2019-06-01T15:15:58.546Z,1014.92
2019-06-01T15:16:58.515Z,1014.89
2019-06-01T15:18:51.572Z,1014.85
2019-06-01T15:19:51.892Z,1014.85
2019-06-01T15:21:44.032Z,1014.90
2019-06-01T15:22:43.962Z,1014.88
2019-06-01T15:24:36.887Z,1014.84
2019-06-01T15:25:36.748Z,1014.79
2019-06-01T15:27:29.572Z,1014.80
2019-06-01T15:28:29.490Z,1014.79
2019-06-01T15:30:22.412Z,1014.85
2019-06-01T15:31:22.290Z,1014.81
2019-06-01T15:33:15.120Z,1014.82
2019-06-01T15:34:15.039Z,1014.78
2019-06-01T15:36:07.885Z,1014.76
2019-06-01T15:37:07.822Z,1014.73
2019-06-01T15:39:02.233Z,1014.67
2019-06-01T15:40:00.903Z,1014.71
2019-06-01T15:41:54.936Z,1014.74
2019-06-01T15:42:55.149Z,1014.71
2019-06-01T15:44:46.458Z,1014.67
2019-06-01T15:45:46.413Z,1014.67
2019-06-01T15:47:39.218Z,1014.66
2019-06-01T15:48:39.232Z,1014.67
2019-06-01T15:50:31.933Z,1014.62
2019-06-01T15:51:31.869Z,1014.60
2019-06-01T15:53:24.658Z,1014.58
2019-06-01T15:54:24.553Z,1014.51
2019-06-01T15:56:17.607Z,1014.51
2019-06-01T15:57:17.336Z,1014.60
2019-06-01T15:59:10.200Z,1014.65
2019-06-01T16:00:10.140Z,1014.65
2019-06-01T16:02:03.469Z,1014.61
2019-06-01T16:03:03.144Z,1014.56
2019-06-01T16:04:57.029Z,1014.56
2019-06-01T16:05:56.994Z,1014.53
2019-06-01T16:07:48.628Z,1014.55
2019-06-01T16:08:48.561Z,1014.55
2019-06-01T16:10:41.455Z,1014.53
2019-06-01T16:11:41.332Z,1014.57
2019-06-01T16:13:34.119Z,1014.52
2019-06-01T16:14:34.061Z,1014.54
2019-06-01T16:16:26.902Z,1014.56
2019-06-01T16:17:26.830Z,1014.51
2019-06-01T16:19:19.860Z,1014.47
2019-06-01T16:20:19.644Z,1014.49
2019-06-01T16:22:12.398Z,1014.46
2019-06-01T16:23:19.463Z,1014.47
2019-06-01T16:25:05.181Z,1014.49
2019-06-01T16:26:15.418Z,1014.44
2019-06-01T16:27:58.745Z,1014.43
2019-06-01T16:28:58.534Z,1014.43
2019-06-01T16:30:50.649Z,1014.43
2019-06-01T16:31:50.570Z,1014.40
2019-06-01T16:33:43.373Z,1014.36
2019-06-01T16:34:43.324Z,1014.40
2019-06-01T16:36:36.146Z,1014.41
2019-06-01T16:37:36.148Z,1014.41
2019-06-01T16:39:28.913Z,1014.41
2019-06-01T16:40:28.778Z,1014.41
2019-06-01T16:42:21.892Z,1014.38
2019-06-01T16:43:21.593Z,1014.34
2019-06-01T16:45:14.470Z,1014.37
2019-06-01T16:46:14.394Z,1014.37
2019-06-01T16:48:07.190Z,1014.36
2019-06-01T16:49:07.127Z,1014.37
2019-06-01T16:50:59.993Z,1014.35
2019-06-01T16:52:01.305Z,1014.35
2019-06-01T16:53:52.666Z,1014.38
2019-06-01T16:54:52.553Z,1014.35
2019-06-01T16:56:45.346Z,1014.31
2019-06-01T16:57:45.356Z,1014.34
2019-06-01T16:59:38.090Z,1014.32
2019-06-01T17:00:38.005Z,1014.38
2019-06-01T17:02:30.800Z,1014.34
2019-06-01T17:03:30.739Z,1014.33
2019-06-01T17:05:23.568Z,1014.35
2019-06-01T17:06:23.488Z,1014.33
2019-06-01T17:08:16.286Z,1014.35
2019-06-01T17:09:16.230Z,1014.32
2019-06-01T17:11:09.141Z,1014.38
2019-06-01T17:12:09.031Z,1014.39
2019-06-01T17:14:02.866Z,1014.37
2019-06-01T17:15:03.157Z,1014.34
2019-06-01T17:16:54.554Z,1014.39
2019-06-01T17:17:54.575Z,1014.34
2019-06-01T17:19:47.269Z,1014.35
2019-06-01T17:20:47.215Z,1014.36
2019-06-01T17:22:39.965Z,1014.41
2019-06-01T17:23:39.910Z,1014.37
2019-06-01T17:25:32.698Z,1014.39
2019-06-01T17:26:32.672Z,1014.41
2019-06-01T17:28:25.655Z,1014.32
2019-06-01T17:29:25.721Z,1014.35
2019-06-01T17:31:18.443Z,1014.39
2019-06-01T17:32:24.362Z,1014.34
2019-06-01T17:34:11.185Z,1014.36
2019-06-01T17:35:11.139Z,1014.32
2019-06-01T17:37:04.735Z,1014.34
2019-06-01T17:38:05.011Z,1014.35
2019-06-01T17:39:56.692Z,1014.34
2019-06-01T17:40:56.859Z,1014.30
2019-06-01T17:42:49.436Z,1014.33
2019-06-01T17:43:49.351Z,1014.30
2019-06-01T17:45:42.166Z,1014.29
2019-06-01T17:46:52.991Z,1014.32
2019-06-01T17:48:35.958Z,1014.32
2019-06-01T17:49:35.436Z,1014.32
2019-06-01T17:51:28.002Z,1014.32
2019-06-01T17:52:27.915Z,1014.30
2019-06-01T17:54:20.717Z,1014.34
2019-06-01T17:55:20.681Z,1014.31
2019-06-01T17:57:13.516Z,1014.32
2019-06-01T17:58:13.475Z,1014.34
2019-06-01T18:00:07.581Z,1014.28
2019-06-01T18:01:06.461Z,1014.34
2019-06-01T18:02:59.101Z,1014.32
2019-06-01T18:03:59.046Z,1014.33
2019-06-01T18:05:51.830Z,1014.30
2019-06-01T18:06:51.808Z,1014.27
2019-06-01T18:08:44.529Z,1014.30
2019-06-01T18:09:44.478Z,1014.30
2019-06-01T18:11:40.746Z,1014.31
2019-06-01T18:12:37.202Z,1014.30
2019-06-01T18:14:30.491Z,1014.29
2019-06-01T18:15:30.345Z,1014.30
2019-06-01T18:17:23.169Z,1014.29
2019-06-01T18:18:23.109Z,1014.30
2019-06-01T18:20:15.878Z,1014.27
2019-06-01T18:21:15.839Z,1014.31
2019-06-01T18:23:10.154Z,1014.32
2019-06-01T18:24:09.951Z,1014.32
2019-06-01T18:26:02.554Z,1014.35
2019-06-01T18:27:02.375Z,1014.34
2019-06-01T18:28:54.239Z,1014.38
2019-06-01T18:29:54.175Z,1014.39
2019-06-01T18:31:47.014Z,1014.42
2019-06-01T18:32:47.050Z,1014.39
2019-06-01T18:34:39.738Z,1014.37
2019-06-01T18:35:39.696Z,1014.38
2019-06-01T18:37:32.592Z,1014.40
2019-06-01T18:38:32.493Z,1014.36
2019-06-01T18:40:25.351Z,1014.38
2019-06-01T18:41:25.252Z,1014.42
2019-06-01T18:43:18.389Z,1014.41
2019-06-01T18:44:18.187Z,1014.41
2019-06-01T18:46:12.111Z,1014.41
2019-06-01T18:47:11.749Z,1014.37
2019-06-01T18:49:03.811Z,1014.38
2019-06-01T18:50:04.078Z,1014.37
2019-06-01T18:51:56.514Z,1014.34
2019-06-01T18:52:56.510Z,1014.35
2019-06-01T18:54:49.298Z,1014.38
2019-06-01T18:55:49.249Z,1014.39
2019-06-01T18:57:42.032Z,1014.39
2019-06-01T18:58:41.944Z,1014.43
2019-06-01T19:00:39.268Z,1014.38
2019-06-01T19:01:35.065Z,1014.38
2019-06-01T19:03:27.744Z,1014.35
2019-06-01T19:04:27.719Z,1014.40
2019-06-01T19:06:20.580Z,1014.39
2019-06-01T19:07:20.574Z,1014.35
2019-06-01T19:09:13.546Z,1014.39
2019-06-01T19:10:14.190Z,1014.39
2019-06-01T19:12:06.771Z,1014.40
2019-06-01T19:13:06.035Z,1014.38
2019-06-01T19:14:58.987Z,1014.42
2019-06-01T19:15:58.874Z,1014.43
2019-06-01T19:17:51.759Z,1014.43
2019-06-01T19:18:51.674Z,1014.44
2019-06-01T19:20:44.491Z,1014.46